sensor_id;sensor_type;location;lat;lon;timestamp;P1;durP1;ratioP1;P2;durP2;ratioP2
54561;SDS011;69047;53.358;-1.486;2023-08-12T00:01:01;22.33;;;4.97;;
54561;SDS011;69047;53.358;-1.486;2023-08-12T00:03:27;19.98;;;4.45;;
54561;SDS011;69047;53.358;-1.486;2023-08-12T00:05:52;27.85;;;4.75;;
54561;SDS011;69047;53.358;-1.486;2023-08-12T00:08:19;23.92;;;5.30;;
54561;SDS011;69047;53.358;-1.486;2023-08-12T00:10:45;23.40;;;4.82;;
54561;SDS011;69047;53.358;-1.486;2023-08-12T00:13:10;31.45;;;5.63;;
54561;SDS011;69047;53.358;-1.486;2023-08-12T00:15:38;32.67;;;4.88;;
54561;SDS011;69047;53.358;-1.486;2023-08-12T00:18:06;21.55;;;4.68;;
54561;SDS011;69047;53.358;-1.486;2023-08-12T00:20:32;21.45;;;4.38;;
54561;SDS011;69047;53.358;-1.486;2023-08-12T00:22:57;29.35;;;4.88;;
54561;SDS011;69047;53.358;-1.486;2023-08-12T00:25:23;26.73;;;4.63;;
54561;SDS011;69047;53.358;-1.486;2023-08-12T00:27:48;26.65;;;5.07;;
54561;SDS011;69047;53.358;-1.486;2023-08-12T00:30:14;22.67;;;5.10;;
54561;SDS011;69047;53.358;-1.486;2023-08-12T00:32:40;23.25;;;4.85;;
54561;SDS011;69047;53.358;-1.486;2023-08-12T00:35:06;22.17;;;4.43;;
54561;SDS011;69047;53.358;-1.486;2023-08-12T00:37:32;32.47;;;5.15;;
54561;SDS011;69047;53.358;-1.486;2023-08-12T00:39:57;18.58;;;4.45;;
54561;SDS011;69047;53.358;-1.486;2023-08-12T00:42:22;21.17;;;4.32;;
54561;SDS011;69047;53.358;-1.486;2023-08-12T00:44:48;29.92;;;4.32;;
54561;SDS011;69047;53.358;-1.486;2023-08-12T00:47:15;26.48;;;5.00;;
54561;SDS011;69047;53.358;-1.486;2023-08-12T00:49:41;31.83;;;6.13;;
54561;SDS011;69047;53.358;-1.486;2023-08-12T00:52:10;22.10;;;5.57;;
54561;SDS011;69047;53.358;-1.486;2023-08-12T00:54:37;21.70;;;4.63;;
54561;SDS011;69047;53.358;-1.486;2023-08-12T00:57:02;23.52;;;4.95;;
54561;SDS011;69047;53.358;-1.486;2023-08-12T00:59:28;28.90;;;5.40;;
54561;SDS011;69047;53.358;-1.486;2023-08-12T01:01:53;23.67;;;4.95;;
54561;SDS011;69047;53.358;-1.486;2023-08-12T01:04:19;31.27;;;5.60;;
54561;SDS011;69047;53.358;-1.486;2023-08-12T01:06:44;26.48;;;4.18;;
54561;SDS011;69047;53.358;-1.486;2023-08-12T01:09:10;21.45;;;4.43;;
54561;SDS011;69047;53.358;-1.486;2023-08-12T01:16:44;29.25;;;4.70;;
54561;SDS011;69047;53.358;-1.486;2023-08-12T01:19:17;27.00;;;4.78;;
54561;SDS011;69047;53.358;-1.486;2023-08-12T01:21:52;30.75;;;4.13;;
54561;SDS011;69047;53.358;-1.486;2023-08-12T01:24:20;20.67;;;4.47;;
54561;SDS011;69047;53.358;-1.486;2023-08-12T01:26:47;22.30;;;4.47;;
54561;SDS011;69047;53.358;-1.486;2023-08-12T01:29:12;22.35;;;4.95;;
54561;SDS011;69047;53.358;-1.486;2023-08-12T01:31:40;27.27;;;4.90;;
54561;SDS011;69047;53.358;-1.486;2023-08-12T01:36:57;25.73;;;4.43;;
54561;SDS011;69047;53.358;-1.486;2023-08-12T01:39:24;29.02;;;4.88;;
54561;SDS011;69047;53.358;-1.486;2023-08-12T01:41:51;26.25;;;4.45;;
54561;SDS011;69047;53.358;-1.486;2023-08-12T01:44:18;22.08;;;4.07;;
54561;SDS011;69047;53.358;-1.486;2023-08-12T01:46:44;27.13;;;4.95;;
54561;SDS011;69047;53.358;-1.486;2023-08-12T01:49:09;21.95;;;5.32;;
54561;SDS011;69047;53.358;-1.486;2023-08-12T01:51:35;27.23;;;5.53;;
54561;SDS011;69047;53.358;-1.486;2023-08-12T01:54:00;20.30;;;4.50;;
54561;SDS011;69047;53.358;-1.486;2023-08-12T01:56:26;33.85;;;5.93;;
54561;SDS011;69047;53.358;-1.486;2023-08-12T01:58:51;23.33;;;4.78;;
54561;SDS011;69047;53.358;-1.486;2023-08-12T02:01:16;29.27;;;5.55;;
54561;SDS011;69047;53.358;-1.486;2023-08-12T02:03:42;23.23;;;4.80;;
54561;SDS011;69047;53.358;-1.486;2023-08-12T02:06:07;23.73;;;5.28;;
54561;SDS011;69047;53.358;-1.486;2023-08-12T02:08:32;24.05;;;4.90;;
54561;SDS011;69047;53.358;-1.486;2023-08-12T02:10:58;18.95;;;4.35;;
54561;SDS011;69047;53.358;-1.486;2023-08-12T02:13:23;23.92;;;5.50;;
54561;SDS011;69047;53.358;-1.486;2023-08-12T02:15:48;24.83;;;5.38;;
54561;SDS011;69047;53.358;-1.486;2023-08-12T02:18:14;34.85;;;4.88;;
54561;SDS011;69047;53.358;-1.486;2023-08-12T02:20:42;24.65;;;5.05;;
54561;SDS011;69047;53.358;-1.486;2023-08-12T02:23:08;22.95;;;4.72;;
54561;SDS011;69047;53.358;-1.486;2023-08-12T02:25:33;25.98;;;5.55;;
54561;SDS011;69047;53.358;-1.486;2023-08-12T02:27:58;32.63;;;5.88;;
54561;SDS011;69047;53.358;-1.486;2023-08-12T02:30:24;24.95;;;5.53;;
54561;SDS011;69047;53.358;-1.486;2023-08-12T02:32:49;33.65;;;5.57;;
54561;SDS011;69047;53.358;-1.486;2023-08-12T02:35:15;24.58;;;5.15;;
54561;SDS011;69047;53.358;-1.486;2023-08-12T02:37:43;21.88;;;5.00;;
54561;SDS011;69047;53.358;-1.486;2023-08-12T02:40:09;32.72;;;6.10;;
54561;SDS011;69047;53.358;-1.486;2023-08-12T02:42:35;23.98;;;5.82;;
54561;SDS011;69047;53.358;-1.486;2023-08-12T02:45:01;26.65;;;6.38;;
54561;SDS011;69047;53.358;-1.486;2023-08-12T02:47:27;30.05;;;6.43;;
54561;SDS011;69047;53.358;-1.486;2023-08-12T02:49:53;30.88;;;6.30;;
54561;SDS011;69047;53.358;-1.486;2023-08-12T02:52:18;24.13;;;5.93;;
54561;SDS011;69047;53.358;-1.486;2023-08-12T02:54:43;20.70;;;4.78;;
54561;SDS011;69047;53.358;-1.486;2023-08-12T02:57:09;25.25;;;6.25;;
54561;SDS011;69047;53.358;-1.486;2023-08-12T02:59:34;27.08;;;6.57;;
54561;SDS011;69047;53.358;-1.486;2023-08-12T03:01:59;26.65;;;7.72;;
54561;SDS011;69047;53.358;-1.486;2023-08-12T03:04:25;22.00;;;6.20;;
54561;SDS011;69047;53.358;-1.486;2023-08-12T03:06:50;26.95;;;7.03;;
54561;SDS011;69047;53.358;-1.486;2023-08-12T03:09:16;24.67;;;6.22;;
54561;SDS011;69047;53.358;-1.486;2023-08-12T03:11:43;24.23;;;7.70;;
54561;SDS011;69047;53.358;-1.486;2023-08-12T03:14:08;26.50;;;6.72;;
54561;SDS011;69047;53.358;-1.486;2023-08-12T03:16:34;25.75;;;6.88;;
54561;SDS011;69047;53.358;-1.486;2023-08-12T03:19:00;25.80;;;7.07;;
54561;SDS011;69047;53.358;-1.486;2023-08-12T03:21:25;31.27;;;6.90;;
54561;SDS011;69047;53.358;-1.486;2023-08-12T03:23:51;29.25;;;7.28;;
54561;SDS011;69047;53.358;-1.486;2023-08-12T03:26:16;37.28;;;7.28;;
54561;SDS011;69047;53.358;-1.486;2023-08-12T03:28:41;27.02;;;7.88;;
54561;SDS011;69047;53.358;-1.486;2023-08-12T03:31:07;30.60;;;8.25;;
54561;SDS011;69047;53.358;-1.486;2023-08-12T03:33:32;37.97;;;9.10;;
54561;SDS011;69047;53.358;-1.486;2023-08-12T03:35:58;31.48;;;8.43;;
54561;SDS011;69047;53.358;-1.486;2023-08-12T03:38:24;22.75;;;8.50;;
54561;SDS011;69047;53.358;-1.486;2023-08-12T03:40:49;31.52;;;7.38;;
54561;SDS011;69047;53.358;-1.486;2023-08-12T03:43:15;32.17;;;8.07;;
54561;SDS011;69047;53.358;-1.486;2023-08-12T03:45:44;30.33;;;7.38;;
54561;SDS011;69047;53.358;-1.486;2023-08-12T03:48:11;31.30;;;8.18;;
54561;SDS011;69047;53.358;-1.486;2023-08-12T03:50:37;26.70;;;7.30;;
54561;SDS011;69047;53.358;-1.486;2023-08-12T03:53:03;26.55;;;7.05;;
54561;SDS011;69047;53.358;-1.486;2023-08-12T03:55:32;38.10;;;8.48;;
54561;SDS011;69047;53.358;-1.486;2023-08-12T03:58:01;31.70;;;9.45;;
54561;SDS011;69047;53.358;-1.486;2023-08-12T04:00:27;28.23;;;7.35;;
54561;SDS011;69047;53.358;-1.486;2023-08-12T04:02:53;28.92;;;8.00;;
54561;SDS011;69047;53.358;-1.486;2023-08-12T04:05:19;31.95;;;7.20;;
54561;SDS011;69047;53.358;-1.486;2023-08-12T04:07:44;26.33;;;6.63;;
54561;SDS011;69047;53.358;-1.486;2023-08-12T04:10:10;32.85;;;6.70;;
54561;SDS011;69047;53.358;-1.486;2023-08-12T04:12:35;32.55;;;7.75;;
54561;SDS011;69047;53.358;-1.486;2023-08-12T04:15:01;33.28;;;7.72;;
54561;SDS011;69047;53.358;-1.486;2023-08-12T04:17:31;25.92;;;6.85;;
54561;SDS011;69047;53.358;-1.486;2023-08-12T04:19:57;23.58;;;7.70;;
54561;SDS011;69047;53.358;-1.486;2023-08-12T04:22:22;25.80;;;6.85;;
54561;SDS011;69047;53.358;-1.486;2023-08-12T04:24:47;32.95;;;7.03;;
54561;SDS011;69047;53.358;-1.486;2023-08-12T04:27:13;39.60;;;8.20;;
54561;SDS011;69047;53.358;-1.486;2023-08-12T04:29:38;34.53;;;8.10;;
54561;SDS011;69047;53.358;-1.486;2023-08-12T04:32:04;28.88;;;7.13;;
54561;SDS011;69047;53.358;-1.486;2023-08-12T04:34:29;26.77;;;7.97;;
54561;SDS011;69047;53.358;-1.486;2023-08-12T04:36:55;26.98;;;7.25;;
54561;SDS011;69047;53.358;-1.486;2023-08-12T04:39:20;38.92;;;8.00;;
54561;SDS011;69047;53.358;-1.486;2023-08-12T04:41:47;31.08;;;8.85;;
54561;SDS011;69047;53.358;-1.486;2023-08-12T04:44:12;31.38;;;8.40;;
54561;SDS011;69047;53.358;-1.486;2023-08-12T04:46:37;29.02;;;6.78;;
54561;SDS011;69047;53.358;-1.486;2023-08-12T04:49:03;33.42;;;7.43;;
54561;SDS011;69047;53.358;-1.486;2023-08-12T04:51:28;33.42;;;7.25;;
54561;SDS011;69047;53.358;-1.486;2023-08-12T04:53:54;29.45;;;6.55;;
54561;SDS011;69047;53.358;-1.486;2023-08-12T04:56:19;29.23;;;6.88;;
54561;SDS011;69047;53.358;-1.486;2023-08-12T04:58:44;26.00;;;6.68;;
54561;SDS011;69047;53.358;-1.486;2023-08-12T05:01:10;20.52;;;6.30;;
54561;SDS011;69047;53.358;-1.486;2023-08-12T05:03:35;33.30;;;7.47;;
54561;SDS011;69047;53.358;-1.486;2023-08-12T05:06:01;27.08;;;6.35;;
54561;SDS011;69047;53.358;-1.486;2023-08-12T05:08:26;26.48;;;5.93;;
54561;SDS011;69047;53.358;-1.486;2023-08-12T05:10:51;30.67;;;6.15;;
54561;SDS011;69047;53.358;-1.486;2023-08-12T05:13:17;30.30;;;6.82;;
54561;SDS011;69047;53.358;-1.486;2023-08-12T05:15:46;23.60;;;6.13;;
54561;SDS011;69047;53.358;-1.486;2023-08-12T05:18:12;23.92;;;6.60;;
54561;SDS011;69047;53.358;-1.486;2023-08-12T05:20:39;30.35;;;7.00;;
54561;SDS011;69047;53.358;-1.486;2023-08-12T05:23:06;37.83;;;6.75;;
54561;SDS011;69047;53.358;-1.486;2023-08-12T05:25:31;32.90;;;8.15;;
54561;SDS011;69047;53.358;-1.486;2023-08-12T05:27:56;27.58;;;6.70;;
54561;SDS011;69047;53.358;-1.486;2023-08-12T05:30:22;35.80;;;6.32;;
54561;SDS011;69047;53.358;-1.486;2023-08-12T05:32:47;23.63;;;6.03;;
54561;SDS011;69047;53.358;-1.486;2023-08-12T05:35:12;29.20;;;6.25;;
54561;SDS011;69047;53.358;-1.486;2023-08-12T05:37:38;34.03;;;6.93;;
54561;SDS011;69047;53.358;-1.486;2023-08-12T05:40:03;31.55;;;6.22;;
54561;SDS011;69047;53.358;-1.486;2023-08-12T05:42:33;30.98;;;6.70;;
54561;SDS011;69047;53.358;-1.486;2023-08-12T05:44:58;26.75;;;5.68;;
54561;SDS011;69047;53.358;-1.486;2023-08-12T05:47:24;23.73;;;5.65;;
54561;SDS011;69047;53.358;-1.486;2023-08-12T05:49:49;24.92;;;6.10;;
54561;SDS011;69047;53.358;-1.486;2023-08-12T05:52:14;36.22;;;6.85;;
54561;SDS011;69047;53.358;-1.486;2023-08-12T05:54:40;36.08;;;6.18;;
54561;SDS011;69047;53.358;-1.486;2023-08-12T05:57:05;27.95;;;5.28;;
54561;SDS011;69047;53.358;-1.486;2023-08-12T05:59:30;26.65;;;6.60;;
54561;SDS011;69047;53.358;-1.486;2023-08-12T06:01:56;24.25;;;5.82;;
54561;SDS011;69047;53.358;-1.486;2023-08-12T06:04:21;27.30;;;5.60;;
54561;SDS011;69047;53.358;-1.486;2023-08-12T06:06:47;29.65;;;6.40;;
54561;SDS011;69047;53.358;-1.486;2023-08-12T06:09:12;32.75;;;5.97;;
54561;SDS011;69047;53.358;-1.486;2023-08-12T06:11:38;30.80;;;5.32;;
54561;SDS011;69047;53.358;-1.486;2023-08-12T06:14:03;21.13;;;4.85;;
54561;SDS011;69047;53.358;-1.486;2023-08-12T06:16:29;25.52;;;4.93;;
54561;SDS011;69047;53.358;-1.486;2023-08-12T06:18:54;18.33;;;4.82;;
54561;SDS011;69047;53.358;-1.486;2023-08-12T06:21:19;19.98;;;4.95;;
54561;SDS011;69047;53.358;-1.486;2023-08-12T06:23:45;24.00;;;4.95;;
54561;SDS011;69047;53.358;-1.486;2023-08-12T06:26:10;26.83;;;5.95;;
54561;SDS011;69047;53.358;-1.486;2023-08-12T06:28:36;31.33;;;6.57;;
54561;SDS011;69047;53.358;-1.486;2023-08-12T06:31:01;22.10;;;4.30;;
54561;SDS011;69047;53.358;-1.486;2023-08-12T06:33:26;21.08;;;4.78;;
54561;SDS011;69047;53.358;-1.486;2023-08-12T06:35:52;22.02;;;4.38;;
54561;SDS011;69047;53.358;-1.486;2023-08-12T06:38:17;25.00;;;5.50;;
54561;SDS011;69047;53.358;-1.486;2023-08-12T06:40:42;26.77;;;4.88;;
54561;SDS011;69047;53.358;-1.486;2023-08-12T06:43:08;21.58;;;5.45;;
54561;SDS011;69047;53.358;-1.486;2023-08-12T06:45:34;28.52;;;5.82;;
54561;SDS011;69047;53.358;-1.486;2023-08-12T06:48:00;22.90;;;5.22;;
54561;SDS011;69047;53.358;-1.486;2023-08-12T06:50:27;25.25;;;5.38;;
54561;SDS011;69047;53.358;-1.486;2023-08-12T06:52:52;22.13;;;4.63;;
54561;SDS011;69047;53.358;-1.486;2023-08-12T06:55:18;22.38;;;5.10;;
54561;SDS011;69047;53.358;-1.486;2023-08-12T06:57:43;19.85;;;5.35;;
54561;SDS011;69047;53.358;-1.486;2023-08-12T07:00:09;14.75;;;4.00;;
54561;SDS011;69047;53.358;-1.486;2023-08-12T07:02:35;21.17;;;4.10;;
54561;SDS011;69047;53.358;-1.486;2023-08-12T07:05:00;16.15;;;4.28;;
54561;SDS011;69047;53.358;-1.486;2023-08-12T07:07:26;21.63;;;4.00;;
54561;SDS011;69047;53.358;-1.486;2023-08-12T07:09:51;11.23;;;3.47;;
54561;SDS011;69047;53.358;-1.486;2023-08-12T07:12:17;15.93;;;3.60;;
54561;SDS011;69047;53.358;-1.486;2023-08-12T07:14:42;13.48;;;3.72;;
54561;SDS011;69047;53.358;-1.486;2023-08-12T07:17:08;10.77;;;3.15;;
54561;SDS011;69047;53.358;-1.486;2023-08-12T07:19:33;13.85;;;3.75;;
54561;SDS011;69047;53.358;-1.486;2023-08-12T07:21:58;13.18;;;3.28;;
54561;SDS011;69047;53.358;-1.486;2023-08-12T07:24:24;12.98;;;3.35;;
54561;SDS011;69047;53.358;-1.486;2023-08-12T07:26:50;9.32;;;2.80;;
54561;SDS011;69047;53.358;-1.486;2023-08-12T07:29:18;10.77;;;2.45;;
54561;SDS011;69047;53.358;-1.486;2023-08-12T07:31:43;16.73;;;3.15;;
54561;SDS011;69047;53.358;-1.486;2023-08-12T07:34:09;6.55;;;2.72;;
54561;SDS011;69047;53.358;-1.486;2023-08-12T07:36:38;11.57;;;3.08;;
54561;SDS011;69047;53.358;-1.486;2023-08-12T07:39:03;18.27;;;2.95;;
54561;SDS011;69047;53.358;-1.486;2023-08-12T07:41:29;12.27;;;3.72;;
54561;SDS011;69047;53.358;-1.486;2023-08-12T07:43:54;11.63;;;3.22;;
54561;SDS011;69047;53.358;-1.486;2023-08-12T07:46:20;16.85;;;3.50;;
54561;SDS011;69047;53.358;-1.486;2023-08-12T07:48:45;19.73;;;4.25;;
54561;SDS011;69047;53.358;-1.486;2023-08-12T07:51:12;23.00;;;5.25;;
54561;SDS011;69047;53.358;-1.486;2023-08-12T07:53:37;16.10;;;4.95;;
54561;SDS011;69047;53.358;-1.486;2023-08-12T07:56:03;19.42;;;6.03;;
54561;SDS011;69047;53.358;-1.486;2023-08-12T07:58:28;15.48;;;6.03;;
54561;SDS011;69047;53.358;-1.486;2023-08-12T08:00:53;18.58;;;5.45;;
54561;SDS011;69047;53.358;-1.486;2023-08-12T08:03:19;20.77;;;6.00;;
54561;SDS011;69047;53.358;-1.486;2023-08-12T08:05:44;16.35;;;6.22;;
54561;SDS011;69047;53.358;-1.486;2023-08-12T08:08:12;23.73;;;7.38;;
54561;SDS011;69047;53.358;-1.486;2023-08-12T08:10:37;18.05;;;5.97;;
54561;SDS011;69047;53.358;-1.486;2023-08-12T08:13:03;9.35;;;4.20;;
54561;SDS011;69047;53.358;-1.486;2023-08-12T08:15:28;14.45;;;4.50;;
54561;SDS011;69047;53.358;-1.486;2023-08-12T08:17:54;10.00;;;3.92;;
54561;SDS011;69047;53.358;-1.486;2023-08-12T08:20:19;19.13;;;4.63;;
54561;SDS011;69047;53.358;-1.486;2023-08-12T08:22:45;18.73;;;4.32;;
54561;SDS011;69047;53.358;-1.486;2023-08-12T08:25:10;10.88;;;3.95;;
54561;SDS011;69047;53.358;-1.486;2023-08-12T08:27:36;12.93;;;4.28;;
54561;SDS011;69047;53.358;-1.486;2023-08-12T08:30:01;10.02;;;3.17;;
54561;SDS011;69047;53.358;-1.486;2023-08-12T08:32:27;15.35;;;4.00;;
54561;SDS011;69047;53.358;-1.486;2023-08-12T08:34:53;16.33;;;3.70;;
54561;SDS011;69047;53.358;-1.486;2023-08-12T08:37:18;14.25;;;3.70;;
54561;SDS011;69047;53.358;-1.486;2023-08-12T08:39:43;18.80;;;4.55;;
54561;SDS011;69047;53.358;-1.486;2023-08-12T08:42:09;21.25;;;5.07;;
54561;SDS011;69047;53.358;-1.486;2023-08-12T08:44:36;24.42;;;5.78;;
54561;SDS011;69047;53.358;-1.486;2023-08-12T08:47:06;22.13;;;6.07;;
54561;SDS011;69047;53.358;-1.486;2023-08-12T08:49:33;29.45;;;5.90;;
54561;SDS011;69047;53.358;-1.486;2023-08-12T08:52:01;24.77;;;5.13;;
54561;SDS011;69047;53.358;-1.486;2023-08-12T08:54:27;26.40;;;5.30;;
54561;SDS011;69047;53.358;-1.486;2023-08-12T08:56:52;27.50;;;5.38;;
54561;SDS011;69047;53.358;-1.486;2023-08-12T08:59:18;18.65;;;4.47;;
54561;SDS011;69047;53.358;-1.486;2023-08-12T09:01:46;25.60;;;5.20;;
54561;SDS011;69047;53.358;-1.486;2023-08-12T09:04:13;19.50;;;5.18;;
54561;SDS011;69047;53.358;-1.486;2023-08-12T09:06:40;22.50;;;5.07;;
54561;SDS011;69047;53.358;-1.486;2023-08-12T09:09:09;14.57;;;4.25;;
54561;SDS011;69047;53.358;-1.486;2023-08-12T09:11:40;18.80;;;4.25;;
54561;SDS011;69047;53.358;-1.486;2023-08-12T09:14:06;14.82;;;4.30;;
54561;SDS011;69047;53.358;-1.486;2023-08-12T09:16:32;17.50;;;3.80;;
54561;SDS011;69047;53.358;-1.486;2023-08-12T09:18:57;17.00;;;4.35;;
54561;SDS011;69047;53.358;-1.486;2023-08-12T09:21:23;17.23;;;3.72;;
54561;SDS011;69047;53.358;-1.486;2023-08-12T09:23:49;23.73;;;4.45;;
54561;SDS011;69047;53.358;-1.486;2023-08-12T09:26:15;25.33;;;5.40;;
54561;SDS011;69047;53.358;-1.486;2023-08-12T09:28:42;22.52;;;5.00;;
54561;SDS011;69047;53.358;-1.486;2023-08-12T09:31:08;22.77;;;3.80;;
54561;SDS011;69047;53.358;-1.486;2023-08-12T09:33:50;19.88;;;4.60;;
54561;SDS011;69047;53.358;-1.486;2023-08-12T09:36:16;25.35;;;4.13;;
54561;SDS011;69047;53.358;-1.486;2023-08-12T09:38:42;24.55;;;4.72;;
54561;SDS011;69047;53.358;-1.486;2023-08-12T09:41:08;30.08;;;4.45;;
54561;SDS011;69047;53.358;-1.486;2023-08-12T09:43:34;27.05;;;5.07;;
54561;SDS011;69047;53.358;-1.486;2023-08-12T09:45:59;22.55;;;4.70;;
54561;SDS011;69047;53.358;-1.486;2023-08-12T09:48:25;23.48;;;3.97;;
54561;SDS011;69047;53.358;-1.486;2023-08-12T09:50:52;16.65;;;4.57;;
54561;SDS011;69047;53.358;-1.486;2023-08-12T09:53:18;24.67;;;5.13;;
54561;SDS011;69047;53.358;-1.486;2023-08-12T09:55:43;28.63;;;5.28;;
54561;SDS011;69047;53.358;-1.486;2023-08-12T09:58:12;17.77;;;3.78;;
54561;SDS011;69047;53.358;-1.486;2023-08-12T10:00:42;18.80;;;4.03;;
54561;SDS011;69047;53.358;-1.486;2023-08-12T10:03:08;14.90;;;3.35;;
54561;SDS011;69047;53.358;-1.486;2023-08-12T10:05:35;18.77;;;4.65;;
54561;SDS011;69047;53.358;-1.486;2023-08-12T10:08:02;22.00;;;4.05;;
54561;SDS011;69047;53.358;-1.486;2023-08-12T10:10:29;20.00;;;4.43;;
54561;SDS011;69047;53.358;-1.486;2023-08-12T10:12:55;15.40;;;3.47;;
54561;SDS011;69047;53.358;-1.486;2023-08-12T10:15:21;21.75;;;4.25;;
54561;SDS011;69047;53.358;-1.486;2023-08-12T10:17:48;13.27;;;3.92;;
54561;SDS011;69047;53.358;-1.486;2023-08-12T10:20:20;15.73;;;3.55;;
54561;SDS011;69047;53.358;-1.486;2023-08-12T10:25:15;18.95;;;3.53;;
54561;SDS011;69047;53.358;-1.486;2023-08-12T10:27:43;22.67;;;4.50;;
54561;SDS011;69047;53.358;-1.486;2023-08-12T10:30:09;26.15;;;4.32;;
54561;SDS011;69047;53.358;-1.486;2023-08-12T10:32:34;16.90;;;3.58;;
54561;SDS011;69047;53.358;-1.486;2023-08-12T10:35:00;15.93;;;3.53;;
54561;SDS011;69047;53.358;-1.486;2023-08-12T10:37:30;12.05;;;3.85;;
54561;SDS011;69047;53.358;-1.486;2023-08-12T10:39:57;22.23;;;4.72;;
54561;SDS011;69047;53.358;-1.486;2023-08-12T10:45:12;18.17;;;3.08;;
54561;SDS011;69047;53.358;-1.486;2023-08-12T10:47:41;26.55;;;4.65;;
54561;SDS011;69047;53.358;-1.486;2023-08-12T10:50:21;23.33;;;4.28;;
54561;SDS011;69047;53.358;-1.486;2023-08-12T10:52:51;13.90;;;2.55;;
54561;SDS011;69047;53.358;-1.486;2023-08-12T10:55:21;15.85;;;3.90;;
54561;SDS011;69047;53.358;-1.486;2023-08-12T10:57:49;18.08;;;3.20;;
54561;SDS011;69047;53.358;-1.486;2023-08-12T11:00:25;9.50;;;2.80;;
54561;SDS011;69047;53.358;-1.486;2023-08-12T11:02:53;12.00;;;3.05;;
54561;SDS011;69047;53.358;-1.486;2023-08-12T11:05:20;21.48;;;3.58;;
54561;SDS011;69047;53.358;-1.486;2023-08-12T11:12:58;19.50;;;4.20;;
54561;SDS011;69047;53.358;-1.486;2023-08-12T11:18:07;15.52;;;4.25;;
54561;SDS011;69047;53.358;-1.486;2023-08-12T11:20:34;11.10;;;2.67;;
54561;SDS011;69047;53.358;-1.486;2023-08-12T11:23:01;23.15;;;3.15;;
54561;SDS011;69047;53.358;-1.486;2023-08-12T11:25:28;17.38;;;3.88;;
54561;SDS011;69047;53.358;-1.486;2023-08-12T11:27:55;18.85;;;2.72;;
54561;SDS011;69047;53.358;-1.486;2023-08-12T11:30:21;14.50;;;3.25;;
54561;SDS011;69047;53.358;-1.486;2023-08-12T11:32:54;10.38;;;3.05;;
54561;SDS011;69047;53.358;-1.486;2023-08-12T11:35:21;13.13;;;2.75;;
54561;SDS011;69047;53.358;-1.486;2023-08-12T11:37:48;12.98;;;3.63;;
54561;SDS011;69047;53.358;-1.486;2023-08-12T11:40:15;13.60;;;2.50;;
54561;SDS011;69047;53.358;-1.486;2023-08-12T11:42:45;13.50;;;2.97;;
54561;SDS011;69047;53.358;-1.486;2023-08-12T11:45:12;10.55;;;2.30;;
54561;SDS011;69047;53.358;-1.486;2023-08-12T11:47:39;7.68;;;2.58;;
54561;SDS011;69047;53.358;-1.486;2023-08-12T11:50:09;9.68;;;2.25;;
54561;SDS011;69047;53.358;-1.486;2023-08-12T11:52:36;12.35;;;2.25;;
54561;SDS011;69047;53.358;-1.486;2023-08-12T11:55:03;7.68;;;1.98;;
54561;SDS011;69047;53.358;-1.486;2023-08-12T11:57:30;14.45;;;2.25;;
54561;SDS011;69047;53.358;-1.486;2023-08-12T11:59:59;9.95;;;2.05;;
54561;SDS011;69047;53.358;-1.486;2023-08-12T12:02:47;6.47;;;1.50;;
54561;SDS011;69047;53.358;-1.486;2023-08-12T12:05:14;9.52;;;1.65;;
54561;SDS011;69047;53.358;-1.486;2023-08-12T12:07:41;8.55;;;2.03;;
54561;SDS011;69047;53.358;-1.486;2023-08-12T12:10:07;9.85;;;2.17;;
54561;SDS011;69047;53.358;-1.486;2023-08-12T12:12:33;9.23;;;2.67;;
54561;SDS011;69047;53.358;-1.486;2023-08-12T12:15:00;8.95;;;2.47;;
54561;SDS011;69047;53.358;-1.486;2023-08-12T12:17:26;8.10;;;2.42;;
54561;SDS011;69047;53.358;-1.486;2023-08-12T12:19:55;13.40;;;2.38;;
54561;SDS011;69047;53.358;-1.486;2023-08-12T12:22:28;13.25;;;2.75;;
54561;SDS011;69047;53.358;-1.486;2023-08-12T12:24:57;10.60;;;2.45;;
54561;SDS011;69047;53.358;-1.486;2023-08-12T12:27:24;11.63;;;2.67;;
54561;SDS011;69047;53.358;-1.486;2023-08-12T12:29:49;10.32;;;1.98;;
54561;SDS011;69047;53.358;-1.486;2023-08-12T12:32:17;10.00;;;1.92;;
54561;SDS011;69047;53.358;-1.486;2023-08-12T12:34:43;5.78;;;1.85;;
54561;SDS011;69047;53.358;-1.486;2023-08-12T12:37:08;8.80;;;2.05;;
54561;SDS011;69047;53.358;-1.486;2023-08-12T12:39:34;7.43;;;1.95;;
54561;SDS011;69047;53.358;-1.486;2023-08-12T12:41:59;5.15;;;2.13;;
54561;SDS011;69047;53.358;-1.486;2023-08-12T12:44:25;4.40;;;1.90;;
54561;SDS011;69047;53.358;-1.486;2023-08-12T12:46:50;8.25;;;1.83;;
54561;SDS011;69047;53.358;-1.486;2023-08-12T12:49:16;15.13;;;2.33;;
54561;SDS011;69047;53.358;-1.486;2023-08-12T12:51:41;9.50;;;2.10;;
54561;SDS011;69047;53.358;-1.486;2023-08-12T12:54:06;6.03;;;1.63;;
54561;SDS011;69047;53.358;-1.486;2023-08-12T12:56:32;7.60;;;1.40;;
54561;SDS011;69047;53.358;-1.486;2023-08-12T12:58:57;7.72;;;1.90;;
54561;SDS011;69047;53.358;-1.486;2023-08-12T13:01:23;4.72;;;1.88;;
54561;SDS011;69047;53.358;-1.486;2023-08-12T13:03:48;9.20;;;2.10;;
54561;SDS011;69047;53.358;-1.486;2023-08-12T13:06:13;9.48;;;2.00;;
54561;SDS011;69047;53.358;-1.486;2023-08-12T13:08:39;6.95;;;1.92;;
54561;SDS011;69047;53.358;-1.486;2023-08-12T13:11:04;4.93;;;1.80;;
54561;SDS011;69047;53.358;-1.486;2023-08-12T13:13:30;8.63;;;1.92;;
54561;SDS011;69047;53.358;-1.486;2023-08-12T13:15:55;7.88;;;2.38;;
54561;SDS011;69047;53.358;-1.486;2023-08-12T13:18:21;8.10;;;1.73;;
54561;SDS011;69047;53.358;-1.486;2023-08-12T13:20:46;11.52;;;2.42;;
54561;SDS011;69047;53.358;-1.486;2023-08-12T13:23:13;4.72;;;1.67;;
54561;SDS011;69047;53.358;-1.486;2023-08-12T13:25:39;6.90;;;1.67;;
54561;SDS011;69047;53.358;-1.486;2023-08-12T13:28:05;5.50;;;1.67;;
54561;SDS011;69047;53.358;-1.486;2023-08-12T13:30:30;5.75;;;2.22;;
54561;SDS011;69047;53.358;-1.486;2023-08-12T13:32:56;6.28;;;1.88;;
54561;SDS011;69047;53.358;-1.486;2023-08-12T13:35:22;8.43;;;1.70;;
54561;SDS011;69047;53.358;-1.486;2023-08-12T13:37:48;5.78;;;1.77;;
54561;SDS011;69047;53.358;-1.486;2023-08-12T13:40:14;2.38;;;1.13;;
54561;SDS011;69047;53.358;-1.486;2023-08-12T13:42:41;4.50;;;1.30;;
54561;SDS011;69047;53.358;-1.486;2023-08-12T13:45:06;5.43;;;1.40;;
54561;SDS011;69047;53.358;-1.486;2023-08-12T13:47:33;3.70;;;1.30;;
54561;SDS011;69047;53.358;-1.486;2023-08-12T13:49:59;3.72;;;1.00;;
54561;SDS011;69047;53.358;-1.486;2023-08-12T13:52:24;6.43;;;1.40;;
54561;SDS011;69047;53.358;-1.486;2023-08-12T13:54:50;3.72;;;1.13;;
54561;SDS011;69047;53.358;-1.486;2023-08-12T13:57:15;1.23;;;0.85;;
54561;SDS011;69047;53.358;-1.486;2023-08-12T13:59:40;4.32;;;0.85;;
54561;SDS011;69047;53.358;-1.486;2023-08-12T14:02:08;2.70;;;0.95;;
54561;SDS011;69047;53.358;-1.486;2023-08-12T14:04:37;3.25;;;1.08;;
54561;SDS011;69047;53.358;-1.486;2023-08-12T14:07:03;2.88;;;0.95;;
54561;SDS011;69047;53.358;-1.486;2023-08-12T14:09:29;4.95;;;0.93;;
54561;SDS011;69047;53.358;-1.486;2023-08-12T14:11:54;7.43;;;1.00;;
54561;SDS011;69047;53.358;-1.486;2023-08-12T14:14:20;2.40;;;0.75;;
54561;SDS011;69047;53.358;-1.486;2023-08-12T14:16:45;6.93;;;0.70;;
54561;SDS011;69047;53.358;-1.486;2023-08-12T14:19:11;3.53;;;0.90;;
54561;SDS011;69047;53.358;-1.486;2023-08-12T14:21:36;3.30;;;0.90;;
54561;SDS011;69047;53.358;-1.486;2023-08-12T14:24:02;2.05;;;0.90;;
54561;SDS011;69047;53.358;-1.486;2023-08-12T14:26:27;4.35;;;0.95;;
54561;SDS011;69047;53.358;-1.486;2023-08-12T14:28:52;3.85;;;0.85;;
54561;SDS011;69047;53.358;-1.486;2023-08-12T14:31:18;2.17;;;0.65;;
54561;SDS011;69047;53.358;-1.486;2023-08-12T14:33:43;3.05;;;0.80;;
54561;SDS011;69047;53.358;-1.486;2023-08-12T14:36:09;4.25;;;0.63;;
54561;SDS011;69047;53.358;-1.486;2023-08-12T14:38:34;8.35;;;0.88;;